Time;durP1;ratioP1;P1;durP2;ratioP2;P2;SDS_P1;SDS_P2;PMS_P1;PMS_P2;Temp;Humidity;BMP_temperature;BMP_pressure;BME280_temperature;BME280_humidity;BME280_pressure;Samples;Min_cycle;Max_cycle;Signal;HPM_P1;HPM_P2
2023/06/30 00:02:05;;;;;;;6.70;5.43;;;17.20;91.20;;;;;;5001570;28;20181;-90
2023/06/30 00:04:32;;;;;;;13.50;5.72;;;17.10;91.20;;;;;;5001015;28;20616;-89
2023/06/30 00:07:01;;;;;;;10.20;6.05;;;17.20;91.30;;;;;;5017886;28;20169;-90
2023/06/30 00:09:26;;;;;;;17.25;5.75;;;17.20;91.20;;;;;;5017798;28;20220;-90
2023/06/30 00:11:54;;;;;;;14.68;5.22;;;17.20;91.10;;;;;;5000276;28;20185;-90
2023/06/30 00:14:20;;;;;;;7.68;4.90;;;17.10;91.00;;;;;;5017329;28;20284;-90
2023/06/30 00:16:46;;;;;;;11.82;4.40;;;17.10;91.10;;;;;;5017571;28;20252;-90
2023/06/30 00:19:12;;;;;;;18.52;5.97;;;17.10;91.20;;;;;;4999763;28;20792;-90
2023/06/30 00:21:41;;;;;;;7.13;4.45;;;17.10;91.30;;;;;;5018023;28;20740;-90
2023/06/30 00:24:12;;;;;;;11.90;5.05;;;17.00;91.30;;;;;;5017536;28;20573;-90
2023/06/30 00:26:38;;;;;;;10.95;4.80;;;17.00;91.30;;;;;;5000923;28;20253;-89
2023/06/30 00:29:03;;;;;;;12.57;5.43;;;17.00;91.30;;;;;;5017784;28;20315;-89
2023/06/30 00:31:29;;;;;;;11.52;5.40;;;17.00;91.20;;;;;;5017558;28;20196;-89
2023/06/30 00:33:55;;;;;;;10.15;5.10;;;17.00;91.30;;;;;;5017189;28;20280;-90
2023/06/30 00:36:21;;;;;;;10.05;5.10;;;17.10;91.30;;;;;;5018300;28;20173;-90
2023/06/30 00:38:46;;;;;;;13.77;4.88;;;17.00;91.30;;;;;;5017296;28;20239;-89
2023/06/30 00:41:12;;;;;;;13.68;4.93;;;16.90;91.20;;;;;;5001114;28;20595;-90
2023/06/30 00:43:38;;;;;;;11.10;4.63;;;16.90;91.30;;;;;;5018989;28;20607;-90
2023/06/30 00:46:04;;;;;;;12.60;8.32;;;16.90;91.40;;;;;;5018298;28;20558;-89
2023/06/30 00:48:30;;;;;;;15.30;8.30;;;16.90;91.50;;;;;;4999592;28;20184;-87
2023/06/30 00:50:56;;;;;;;18.45;9.52;;;16.90;91.50;;;;;;4999120;28;20177;-87
2023/06/30 00:53:22;;;;;;;16.05;9.00;;;17.00;91.50;;;;;;4998582;28;20742;-87
2023/06/30 00:55:50;;;;;;;13.18;9.77;;;17.00;91.40;;;;;;4998892;28;20264;-88
2023/06/30 00:58:15;;;;;;;16.17;9.23;;;17.00;91.30;;;;;;4999014;28;20177;-88
2023/06/30 01:00:41;;;;;;;14.98;9.20;;;16.90;91.10;;;;;;5016600;28;20675;-87
2023/06/30 01:03:42;;;;;;;11.95;9.15;;;16.90;91.00;;;;;;4998736;28;20225;-87
2023/06/30 01:06:27;;;;;;;10.30;9.27;;;16.80;91.20;;;;;;4990833;28;20181;-87
2023/06/30 01:08:59;;;;;;;13.70;8.90;;;16.90;91.20;;;;;;4998692;28;20169;-87
2023/06/30 01:11:26;;;;;;;16.52;8.13;;;16.90;91.10;;;;;;4998711;28;20176;-88
2023/06/30 01:13:54;;;;;;;13.80;4.63;;;16.90;91.20;;;;;;4998406;28;20300;-87
2023/06/30 01:16:21;;;;;;;18.15;4.97;;;16.90;91.10;;;;;;5016388;28;20166;-87
2023/06/30 01:18:52;;;;;;;10.02;4.72;;;16.90;91.10;;;;;;4998922;28;20637;-87
2023/06/30 01:21:21;;;;;;;10.52;4.70;;;16.90;91.10;;;;;;4999115;28;20257;-87
2023/06/30 01:23:54;;;;;;;13.45;5.25;;;17.00;91.10;;;;;;4998717;28;20573;-88
2023/06/30 01:26:21;;;;;;;10.95;4.57;;;17.00;91.00;;;;;;4998815;28;20209;-88
2023/06/30 01:28:48;;;;;;;13.82;4.85;;;16.90;90.80;;;;;;4998483;28;20185;-88
2023/06/30 01:31:14;;;;;;;10.07;4.82;;;16.80;90.70;;;;;;4998638;28;20710;-87
2023/06/30 01:33:40;;;;;;;11.45;4.68;;;16.80;90.60;;;;;;4998204;28;20208;-88
2023/06/30 01:36:07;;;;;;;12.68;4.97;;;16.80;90.60;;;;;;4998578;28;20188;-88
2023/06/30 01:38:32;;;;;;;10.20;4.80;;;16.90;90.50;;;;;;5015777;28;20250;-87
2023/06/30 01:41:00;;;;;;;13.23;5.00;;;16.90;90.40;;;;;;5015692;28;20205;-87
2023/06/30 01:43:27;;;;;;;14.40;4.90;;;16.80;90.20;;;;;;4998006;28;20264;-87
2023/06/30 01:45:53;;;;;;;6.93;4.35;;;16.80;90.20;;;;;;5015518;28;20169;-88
2023/06/30 01:48:19;;;;;;;8.57;4.95;;;16.80;89.70;;;;;;4998161;28;20623;-87
2023/06/30 01:50:45;;;;;;;8.38;4.53;;;16.80;89.80;;;;;;4996990;28;20182;-87
2023/06/30 01:53:11;;;;;;;9.75;4.50;;;16.80;89.60;;;;;;4998119;28;20217;-87
2023/06/30 01:55:38;;;;;;;6.95;4.32;;;16.80;89.50;;;;;;4998659;28;20284;-87
2023/06/30 01:58:04;;;;;;;10.02;4.90;;;16.70;89.40;;;;;;5015909;28;20252;-87
2023/06/30 02:00:29;;;;;;;7.60;4.43;;;16.80;89.40;;;;;;4998185;28;20209;-87
2023/06/30 02:02:55;;;;;;;10.90;4.38;;;16.80;89.30;;;;;;4997613;28;20201;-87
2023/06/30 02:05:20;;;;;;;11.10;4.30;;;16.80;89.10;;;;;;4998166;28;20181;-88
2023/06/30 02:07:46;;;;;;;14.20;4.30;;;16.80;89.10;;;;;;4997867;28;20165;-87
2023/06/30 02:10:12;;;;;;;11.93;4.50;;;16.70;89.10;;;;;;4997748;28;20181;-88
2023/06/30 02:12:38;;;;;;;6.53;4.15;;;16.70;89.30;;;;;;4998029;28;20700;-87
2023/06/30 02:15:04;;;;;;;7.10;3.97;;;16.70;89.30;;;;;;4997744;28;20201;-88
2023/06/30 02:17:32;;;;;;;6.97;4.07;;;16.70;89.40;;;;;;4997631;28;20181;-88
2023/06/30 02:20:03;;;;;;;15.50;4.35;;;16.70;89.40;;;;;;4998005;28;20676;-88
2023/06/30 02:22:29;;;;;;;6.45;4.13;;;16.70;89.40;;;;;;4997858;28;20586;-88
2023/06/30 02:24:56;;;;;;;9.25;4.30;;;16.70;89.30;;;;;;5015762;28;20232;-88
2023/06/30 02:27:22;;;;;;;12.48;4.55;;;16.70;89.30;;;;;;4998177;28;20720;-87
2023/06/30 02:29:47;;;;;;;6.97;3.65;;;16.70;89.30;;;;;;4998265;28;20177;-88
2023/06/30 02:32:13;;;;;;;6.43;3.88;;;16.70;89.40;;;;;;4998451;28;20176;-88
2023/06/30 02:34:38;;;;;;;7.95;3.85;;;16.70;89.30;;;;;;4997503;28;20608;-87
2023/06/30 02:37:04;;;;;;;8.95;3.90;;;16.70;89.30;;;;;;4997457;28;20181;-87
2023/06/30 02:39:30;;;;;;;10.10;3.97;;;16.70;89.40;;;;;;4998059;28;20196;-87
2023/06/30 02:41:55;;;;;;;11.20;4.50;;;16.70;89.40;;;;;;5015264;28;20165;-88
2023/06/30 02:44:21;;;;;;;7.75;4.18;;;16.80;89.40;;;;;;4997470;28;20567;-87
2023/06/30 02:46:46;;;;;;;6.50;4.00;;;16.70;89.30;;;;;;5015177;28;20178;-88
2023/06/30 02:49:12;;;;;;;9.65;4.05;;;16.70;89.40;;;;;;4997501;28;20185;-88
2023/06/30 02:51:37;;;;;;;8.30;4.20;;;16.70;89.40;;;;;;4997892;28;20178;-88
2023/06/30 02:54:03;;;;;;;8.80;4.82;;;16.70;89.40;;;;;;4997179;28;20563;-88
2023/06/30 02:56:29;;;;;;;7.72;4.15;;;16.60;89.60;;;;;;4997429;28;20177;-87
2023/06/30 02:58:54;;;;;;;7.45;4.28;;;16.60;89.60;;;;;;4996931;28;20180;-87
2023/06/30 03:01:22;;;;;;;11.98;4.20;;;16.60;89.70;;;;;;5014228;28;20173;-88
2023/06/30 03:03:48;;;;;;;13.77;4.70;;;16.60;89.60;;;;;;5014051;28;20268;-87
2023/06/30 03:06:14;;;;;;;11.07;4.57;;;16.70;89.70;;;;;;5014406;28;20609;-87
2023/06/30 03:08:40;;;;;;;7.50;4.47;;;16.70;89.60;;;;;;4997173;28;20184;-88
2023/06/30 03:11:05;;;;;;;8.40;4.18;;;16.70;89.60;;;;;;4996496;28;20192;-88
2023/06/30 03:13:31;;;;;;;9.20;4.20;;;16.70;89.60;;;;;;5014309;28;20547;-87
2023/06/30 03:15:56;;;;;;;8.98;4.57;;;16.70;89.60;;;;;;4997322;28;20182;-87
2023/06/30 03:18:22;;;;;;;9.43;4.28;;;16.70;89.60;;;;;;4997022;28;20180;-87
2023/06/30 03:20:49;;;;;;;12.30;5.07;;;16.70;89.70;;;;;;5014644;28;20656;-87
2023/06/30 03:23:14;;;;;;;8.45;4.97;;;16.70;89.80;;;;;;5014629;28;20558;-87
2023/06/30 03:25:40;;;;;;;12.50;5.43;;;16.70;89.80;;;;;;4997187;28;20170;-87
2023/06/30 03:28:06;;;;;;;11.32;4.50;;;16.70;89.80;;;;;;5014686;28;20244;-87
2023/06/30 03:30:31;;;;;;;6.28;5.57;;;16.70;89.80;;;;;;4997631;28;20669;-87
2023/06/30 03:32:57;;;;;;;9.15;4.78;;;16.70;89.70;;;;;;4996796;28;20189;-87
2023/06/30 03:35:22;;;;;;;10.02;4.45;;;16.70;89.70;;;;;;4999556;28;20208;-85
2023/06/30 03:37:48;;;;;;;14.40;4.63;;;16.70;89.70;;;;;;5015277;28;20223;-88
2023/06/30 03:40:14;;;;;;;7.82;4.03;;;16.70;89.80;;;;;;4997403;28;20677;-87
2023/06/30 03:42:40;;;;;;;8.43;4.40;;;16.70;89.80;;;;;;4997440;28;20223;-87
2023/06/30 03:45:06;;;;;;;10.02;4.50;;;16.70;89.80;;;;;;5014665;28;20181;-88
2023/06/30 03:47:31;;;;;;;8.10;4.38;;;16.70;89.80;;;;;;4997029;28;20181;-88
2023/06/30 03:49:57;;;;;;;9.18;3.50;;;16.70;89.70;;;;;;4997546;28;20200;-87
2023/06/30 03:52:22;;;;;;;11.73;4.57;;;16.70;89.60;;;;;;4996778;28;20212;-87
2023/06/30 03:54:48;;;;;;;6.50;3.88;;;16.80;89.50;;;;;;4996922;28;20209;-87
2023/06/30 03:57:13;;;;;;;5.13;4.20;;;16.80;89.30;;;;;;5014642;28;20248;-87
2023/06/30 03:59:39;;;;;;;6.32;4.20;;;16.80;89.30;;;;;;4996889;28;20223;-87
2023/06/30 04:02:04;;;;;;;6.57;4.07;;;16.80;89.00;;;;;;4997240;28;20264;-87
2023/06/30 04:04:30;;;;;;;5.57;4.75;;;16.70;89.00;;;;;;4997314;28;20203;-87
2023/06/30 04:06:55;;;;;;;5.95;4.22;;;16.70;89.00;;;;;;4997402;28;20598;-87
2023/06/30 04:09:21;;;;;;;9.63;4.32;;;16.80;89.10;;;;;;4997086;28;20181;-87
2023/06/30 04:11:48;;;;;;;10.02;4.40;;;16.80;89.10;;;;;;4996843;28;20289;-87
2023/06/30 04:14:14;;;;;;;9.13;4.43;;;16.80;89.20;;;;;;4999110;28;20201;-87
2023/06/30 04:16:39;;;;;;;5.35;3.67;;;16.80;89.20;;;;;;5017785;28;20170;-87
2023/06/30 04:19:05;;;;;;;8.60;4.68;;;16.90;89.30;;;;;;5000175;28;20334;-87
2023/06/30 04:21:30;;;;;;;5.25;4.10;;;16.80;89.30;;;;;;5000244;28;20181;-87
2023/06/30 04:23:56;;;;;;;9.30;4.00;;;16.90;89.40;;;;;;5000166;28;20201;-87
2023/06/30 04:26:22;;;;;;;8.00;4.38;;;16.90;89.40;;;;;;5000532;28;20173;-87
2023/06/30 04:28:47;;;;;;;5.38;3.80;;;16.90;89.40;;;;;;5000019;28;20184;-87
2023/06/30 04:31:13;;;;;;;4.50;4.07;;;16.90;89.40;;;;;;5000074;28;20637;-87
2023/06/30 04:33:38;;;;;;;5.05;3.63;;;16.90;89.50;;;;;;4999723;28;20255;-87
2023/06/30 04:36:06;;;;;;;5.85;4.00;;;16.90;89.50;;;;;;4999992;28;20265;-87
2023/06/30 04:38:32;;;;;;;8.98;4.07;;;16.90;89.40;;;;;;5018760;28;20170;-87
2023/06/30 04:40:58;;;;;;;3.95;3.60;;;16.90;89.30;;;;;;5000955;28;20223;-87
2023/06/30 04:43:24;;;;;;;7.15;3.95;;;16.90;89.30;;;;;;4999898;28;20288;-87
2023/06/30 04:45:49;;;;;;;5.35;4.10;;;16.80;89.20;;;;;;5017352;28;20182;-87
2023/06/30 04:48:15;;;;;;;6.28;3.60;;;16.70;88.80;;;;;;4999137;28;20558;-87
2023/06/30 04:50:40;;;;;;;6.22;3.70;;;16.50;89.20;;;;;;4999074;28;20898;-87
2023/06/30 04:53:06;;;;;;;5.70;3.83;;;16.60;89.30;;;;;;4998543;28;20300;-87
2023/06/30 04:55:31;;;;;;;7.07;3.92;;;16.60;89.30;;;;;;5016227;28;20180;-87
2023/06/30 04:57:58;;;;;;;7.10;4.07;;;16.60;89.30;;;;;;5016263;28;20177;-87
2023/06/30 05:00:24;;;;;;;6.22;3.85;;;16.60;89.30;;;;;;4998878;28;20169;-87
2023/06/30 05:02:50;;;;;;;5.07;3.92;;;16.60;89.30;;;;;;4998623;28;20205;-87
2023/06/30 05:05:16;;;;;;;6.45;4.18;;;16.60;89.30;;;;;;4998284;28;20279;-87
2023/06/30 05:07:41;;;;;;;13.18;4.72;;;16.50;89.50;;;;;;5015970;28;20252;-87
2023/06/30 05:10:08;;;;;;;5.30;3.95;;;16.60;89.60;;;;;;4998339;28;20189;-87
2023/06/30 05:12:33;;;;;;;9.90;4.47;;;16.60;89.60;;;;;;4998145;28;20227;-87
2023/06/30 05:14:59;;;;;;;5.40;4.15;;;16.60;89.60;;;;;;4997925;28;20197;-87
2023/06/30 05:17:24;;;;;;;7.80;4.13;;;16.40;89.60;;;;;;4998070;28;20174;-87
2023/06/30 05:19:50;;;;;;;8.48;3.90;;;16.30;89.90;;;;;;4997956;28;20818;-87
2023/06/30 05:22:15;;;;;;;5.85;3.92;;;16.30;90.10;;;;;;5015311;28;20177;-87
2023/06/30 05:24:41;;;;;;;8.32;4.35;;;16.20;90.30;;;;;;4997912;28;20189;-87
2023/06/30 05:27:07;;;;;;;5.82;3.97;;;16.30;90.60;;;;;;4997819;28;20178;-87
2023/06/30 05:29:32;;;;;;;10.00;4.82;;;16.40;90.60;;;;;;4997810;28;20181;-87
2023/06/30 05:31:58;;;;;;;9.38;4.32;;;16.50;90.60;;;;;;4997712;28;20185;-86
2023/06/30 05:34:23;;;;;;;12.32;4.35;;;16.50;90.50;;;;;;4997629;28;20251;-87
2023/06/30 05:36:49;;;;;;;5.20;4.13;;;16.50;90.50;;;;;;5015201;28;20166;-87
2023/06/30 05:39:14;;;;;;;5.07;4.30;;;16.40;90.50;;;;;;4997622;28;20173;-87
2023/06/30 05:41:40;;;;;;;10.45;5.00;;;16.50;90.70;;;;;;5015095;28;20192;-86
2023/06/30 05:44:09;;;;;;;9.02;5.00;;;16.60;90.70;;;;;;4997450;28;20543;-87
2023/06/30 05:46:37;;;;;;;6.50;4.93;;;16.70;90.70;;;;;;4997672;28;20208;-87
2023/06/30 05:49:05;;;;;;;6.40;4.90;;;16.70;90.30;;;;;;5014901;28;20177;-87
2023/06/30 05:51:32;;;;;;;6.90;4.72;;;16.70;90.30;;;;;;5014809;28;20224;-87
2023/06/30 05:53:58;;;;;;;9.82;4.88;;;16.70;90.30;;;;;;5014670;28;20260;-85
2023/06/30 05:56:23;;;;;;;9.07;4.82;;;16.80;90.40;;;;;;4997505;28;20645;-87
2023/06/30 05:58:49;;;;;;;11.63;4.70;;;16.70;90.30;;;;;;5014838;28;20173;-86
2023/06/30 06:01:14;;;;;;;10.48;4.72;;;16.80;90.30;;;;;;4997188;28;20177;-85
2023/06/30 06:03:40;;;;;;;9.45;4.88;;;16.80;90.20;;;;;;5014618;28;20200;-84
2023/06/30 06:06:05;;;;;;;8.80;4.70;;;16.80;89.90;;;;;;5014529;28;20169;-85
2023/06/30 06:08:31;;;;;;;5.28;4.72;;;16.70;89.70;;;;;;4996994;28;20177;-85
2023/06/30 06:10:56;;;;;;;10.20;5.15;;;16.80;89.70;;;;;;4996979;28;20557;-86
2023/06/30 06:13:36;;;;;;;8.20;5.38;;;16.80;89.50;;;;;;4996680;28;20197;-85
2023/06/30 06:16:02;;;;;;;10.38;5.15;;;16.90;89.40;;;;;;5014809;28;20173;-85
2023/06/30 06:18:28;;;;;;;9.60;4.90;;;17.00;89.20;;;;;;4996645;28;20174;-85
2023/06/30 06:20:55;;;;;;;9.30;4.72;;;17.00;89.30;;;;;;4996755;28;20188;-85
2023/06/30 06:23:21;;;;;;;15.02;5.13;;;17.00;89.20;;;;;;5014437;28;20197;-85
2023/06/30 06:25:47;;;;;;;6.63;4.68;;;17.10;89.30;;;;;;5014211;28;20642;-85
2023/06/30 06:28:12;;;;;;;7.47;4.35;;;17.20;89.40;;;;;;4996749;28;20672;-85
2023/06/30 06:30:38;;;;;;;8.63;4.50;;;17.30;89.20;;;;;;4996463;28;20177;-85
2023/06/30 06:33:03;;;;;;;9.90;5.63;;;17.30;88.50;;;;;;5013968;28;20223;-85
2023/06/30 06:35:29;;;;;;;12.32;5.78;;;17.40;88.20;;;;;;5013976;28;20282;-85
2023/06/30 06:37:54;;;;;;;8.68;4.80;;;17.70;88.00;;;;;;5013647;28;20173;-84
2023/06/30 06:40:20;;;;;;;8.93;4.60;;;17.70;87.60;;;;;;5014280;28;20178;-85
2023/06/30 06:42:45;;;;;;;5.95;4.95;;;17.70;86.40;;;;;;4996250;28;20544;-85
2023/06/30 06:45:12;;;;;;;6.43;5.53;;;17.80;85.70;;;;;;4997314;28;20188;-85
2023/06/30 06:48:14;;;;;;;8.20;5.68;;;17.80;84.90;;;;;;5014100;28;20174;-85
2023/06/30 06:50:40;;;;;;;9.25;6.25;;;17.70;84.10;;;;;;5013729;28;20216;-85
2023/06/30 06:53:05;;;;;;;7.18;5.32;;;17.80;84.40;;;;;;4995885;28;20244;-85
2023/06/30 06:55:31;;;;;;;7.07;6.47;;;17.80;84.30;;;;;;5013644;28;20243;-85
2023/06/30 06:57:56;;;;;;;9.30;6.20;;;17.80;83.20;;;;;;5013952;28;20173;-85
2023/06/30 07:00:22;;;;;;;7.60;6.18;;;17.80;82.90;;;;;;5013843;28;20170;-84
2023/06/30 07:02:48;;;;;;;6.43;5.70;;;17.80;83.20;;;;;;5013595;28;20189;-84
2023/06/30 07:05:14;;;;;;;8.48;6.20;;;17.90;82.60;;;;;;4996092;28;20188;-85
2023/06/30 07:07:39;;;;;;;13.65;5.78;;;17.80;82.70;;;;;;4996113;28;20185;-85
2023/06/30 07:10:06;;;;;;;6.88;5.50;;;17.90;82.90;;;;;;4996084;28;20552;-85
2023/06/30 07:12:31;;;;;;;6.88;6.15;;;17.80;81.90;;;;;;4995865;28;20315;-84
2023/06/30 07:14:57;;;;;;;11.70;6.95;;;17.70;81.20;;;;;;5013345;28;20287;-85
2023/06/30 07:17:22;;;;;;;7.53;6.70;;;17.80;80.90;;;;;;5013387;28;20310;-85
2023/06/30 07:19:48;;;;;;;10.52;7.10;;;17.80;81.00;;;;;;4996140;28;20706;-84
2023/06/30 07:22:14;;;;;;;10.32;7.15;;;17.80;81.30;;;;;;4995857;28;20177;-85
2023/06/30 07:24:39;;;;;;;9.10;6.65;;;17.90;81.70;;;;;;4995748;28;20255;-85
2023/06/30 07:27:05;;;;;;;8.93;5.68;;;18.10;81.90;;;;;;5013462;28;20224;-84
2023/06/30 07:29:31;;;;;;;11.18;5.97;;;18.20;82.20;;;;;;4995858;28;20181;-85
2023/06/30 07:31:56;;;;;;;8.70;5.68;;;18.20;81.50;;;;;;4995720;28;20189;-86
2023/06/30 07:34:23;;;;;;;10.70;6.53;;;18.30;81.00;;;;;;4995507;28;20201;-86
2023/06/30 07:36:52;;;;;;;7.88;6.60;;;18.20;80.10;;;;;;5013240;28;20162;-85
2023/06/30 07:39:18;;;;;;;7.45;6.60;;;18.30;80.00;;;;;;4995604;28;20268;-85
2023/06/30 07:41:43;;;;;;;7.15;6.45;;;18.30;79.70;;;;;;4995908;28;20260;-85
2023/06/30 07:44:11;;;;;;;6.78;6.07;;;18.40;79.30;;;;;;4995553;28;20197;-85
2023/06/30 07:46:37;;;;;;;8.88;6.78;;;18.50;78.50;;;;;;4995506;28;20182;-85
2023/06/30 07:49:03;;;;;;;9.20;6.80;;;18.60;78.00;;;;;;4997432;28;20174;-85
2023/06/30 07:51:29;;;;;;;8.23;6.40;;;18.70;77.80;;;;;;4999557;28;20182;-85
2023/06/30 07:53:55;;;;;;;7.57;6.78;;;18.70;77.80;;;;;;5016737;28;20299;-85
2023/06/30 07:56:21;;;;;;;8.75;7.43;;;18.60;77.40;;;;;;4999473;28;20389;-85
2023/06/30 07:58:46;;;;;;;9.48;6.30;;;18.60;77.80;;;;;;4999461;28;20188;-85
2023/06/30 08:01:12;;;;;;;8.50;6.97;;;18.80;78.20;;;;;;4999605;28;20669;-85
2023/06/30 08:03:37;;;;;;;11.27;7.50;;;18.70;77.70;;;;;;5016852;28;20299;-84
2023/06/30 08:06:03;;;;;;;8.77;7.28;;;18.80;77.30;;;;;;4999210;28;20169;-84
2023/06/30 08:08:31;;;;;;;9.23;7.30;;;18.90;77.80;;;;;;4999568;28;20179;-86
2023/06/30 08:10:57;;;;;;;9.52;7.88;;;19.00;77.10;;;;;;4999544;28;20163;-86
2023/06/30 08:13:22;;;;;;;9.63;8.40;;;19.00;76.90;;;;;;4999170;28;20197;-87
2023/06/30 08:15:48;;;;;;;8.55;7.88;;;18.80;76.40;;;;;;4999209;28;20185;-87
2023/06/30 08:18:13;;;;;;;10.05;9.13;;;18.90;77.00;;;;;;5017183;28;20659;-86
2023/06/30 08:20:39;;;;;;;10.25;9.25;;;18.80;75.60;;;;;;4999058;28;20648;-86
2023/06/30 08:23:07;;;;;;;11.75;10.55;;;18.80;75.20;;;;;;4998931;28;20664;-86
2023/06/30 08:25:32;;;;;;;10.88;9.20;;;18.90;75.00;;;;;;4999044;28;20200;-86
2023/06/30 08:27:58;;;;;;;10.65;9.18;;;19.10;76.10;;;;;;4998980;28;20714;-86
2023/06/30 08:30:23;;;;;;;13.02;9.50;;;19.30;75.40;;;;;;5016805;28;20541;-87
2023/06/30 08:32:49;;;;;;;10.43;9.32;;;19.50;75.30;;;;;;4998879;28;20197;-87
2023/06/30 08:35:15;;;;;;;11.20;10.10;;;19.60;74.20;;;;;;5016564;28;20197;-87
2023/06/30 08:37:42;;;;;;;11.50;10.50;;;19.60;73.30;;;;;;4998596;28;20177;-86
2023/06/30 08:40:09;;;;;;;13.02;11.27;;;19.70;73.00;;;;;;4998703;28;20672;-86
2023/06/30 08:42:36;;;;;;;11.00;10.00;;;19.70;73.20;;;;;;5016021;28;20177;-86
2023/06/30 08:45:03;;;;;;;11.10;10.00;;;19.70;73.10;;;;;;5016471;28;20178;-86
2023/06/30 08:47:32;;;;;;;10.20;9.50;;;19.70;72.90;;;;;;4998553;28;20184;-86
2023/06/30 08:49:58;;;;;;;11.70;10.38;;;19.80;72.50;;;;;;4998821;28;20557;-86
2023/06/30 08:52:24;;;;;;;11.20;10.25;;;19.40;73.00;;;;;;4998546;28;20177;-87
2023/06/30 08:54:50;;;;;;;11.52;10.63;;;19.40;72.80;;;;;;4998433;28;20637;-86
2023/06/30 08:57:17;;;;;;;11.13;10.13;;;19.20;72.50;;;;;;4998867;28;20182;-87
2023/06/30 08:59:46;;;;;;;12.13;10.90;;;19.20;73.80;;;;;;4999242;28;20177;-87
2023/06/30 09:02:12;;;;;;;12.52;11.32;;;19.10;72.50;;;;;;5017181;28;20225;-87
2023/06/30 09:04:40;;;;;;;11.40;10.35;;;19.00;72.40;;;;;;4999165;28;20614;-87
2023/06/30 09:07:08;;;;;;;10.80;9.90;;;19.30;73.30;;;;;;4999195;28;20629;-87
2023/06/30 09:09:43;;;;;;;13.43;10.30;;;19.70;73.00;;;;;;5016700;28;20180;-87
2023/06/30 09:12:10;;;;;;;12.05;10.98;;;19.90;71.20;;;;;;4999189;28;20522;-88
2023/06/30 09:14:39;;;;;;;13.68;12.40;;;20.20;70.70;;;;;;4998641;28;20229;-87
2023/06/30 09:17:05;;;;;;;13.40;12.15;;;20.20;70.70;;;;;;5016768;28;20172;-88
2023/06/30 09:19:30;;;;;;;12.93;11.98;;;20.30;68.80;;;;;;5000163;28;20175;-89
2023/06/30 09:21:57;;;;;;;14.50;13.10;;;20.50;69.20;;;;;;4999091;28;20184;-88
2023/06/30 09:24:23;;;;;;;14.18;12.98;;;20.30;66.60;;;;;;4998194;28;20288;-88
2023/06/30 09:26:51;;;;;;;14.90;13.70;;;20.10;68.80;;;;;;4998310;28;20181;-87
2023/06/30 09:29:21;;;;;;;14.35;13.23;;;20.60;67.60;;;;;;4998207;28;20254;-88
2023/06/30 09:31:50;;;;;;;16.38;15.18;;;20.80;67.20;;;;;;5016657;28;20246;-88
2023/06/30 09:34:16;;;;;;;16.27;14.85;;;20.90;63.90;;;;;;4997633;28;20240;-88
2023/06/30 09:36:48;;;;;;;17.15;15.93;;;20.80;66.50;;;;;;5015389;28;20197;-88
2023/06/30 09:39:13;;;;;;;17.85;16.00;;;21.00;62.90;;;;;;4997821;28;20185;-87
2023/06/30 09:41:45;;;;;;;15.27;14.10;;;20.90;62.50;;;;;;4997697;28;20177;-87
2023/06/30 09:44:12;;;;;;;17.95;16.30;;;21.10;62.30;;;;;;5015708;28;20200;-87
2023/06/30 09:46:53;;;;;;;15.73;14.32;;;21.10;60.80;;;;;;4998048;28;20220;-87
2023/06/30 09:49:30;;;;;;;14.95;13.90;;;21.30;63.10;;;;;;4998459;28;20296;-84
2023/06/30 09:51:57;;;;;;;15.00;13.68;;;21.70;62.50;;;;;;4997685;28;20177;-84
2023/06/30 09:54:26;;;;;;;16.80;14.90;;;21.90;58.30;;;;;;4997339;28;20570;-85
2023/06/30 09:56:58;;;;;;;14.45;13.38;;;21.50;60.00;;;;;;4997192;28;20645;-86
2023/06/30 09:59:24;;;;;;;15.80;14.60;;;21.40;59.30;;;;;;4997173;28;20223;-86
2023/06/30 10:01:53;;;;;;;14.63;13.63;;;21.00;61.10;;;;;;5014697;28;20244;-86
2023/06/30 10:04:19;;;;;;;15.40;13.90;;;21.20;62.90;;;;;;4997057;28;20583;-85
2023/06/30 10:06:47;;;;;;;15.88;14.40;;;21.30;62.50;;;;;;4997043;28;20202;-86
2023/06/30 10:09:13;;;;;;;15.45;14.30;;;21.20;63.00;;;;;;4997099;28;20185;-85
2023/06/30 10:11:43;;;;;;;15.88;14.48;;;21.10;64.50;;;;;;4996279;28;20182;-85
2023/06/30 10:14:11;;;;;;;16.02;14.52;;;21.20;61.60;;;;;;5014265;28;20201;-85
2023/06/30 10:16:37;;;;;;;15.77;14.48;;;20.70;61.30;;;;;;4996815;28;20564;-86
2023/06/30 10:19:04;;;;;;;15.88;14.50;;;21.10;62.30;;;;;;4996628;28;20173;-85
2023/06/30 10:21:29;;;;;;;15.65;13.57;;;21.20;62.20;;;;;;4996630;28;20174;-85
2023/06/30 10:23:56;;;;;;;16.45;14.90;;;21.70;62.40;;;;;;5014378;28;20193;-86
2023/06/30 10:26:23;;;;;;;16.90;15.40;;;21.70;62.30;;;;;;4996539;28;20185;-85
2023/06/30 10:28:49;;;;;;;16.67;15.27;;;21.60;56.40;;;;;;4996511;28;20209;-86
2023/06/30 10:31:15;;;;;;;16.05;14.80;;;21.80;61.30;;;;;;4996418;28;20220;-86
2023/06/30 10:33:41;;;;;;;16.38;15.10;;;22.20;58.20;;;;;;4996329;28;20654;-85
2023/06/30 10:36:08;;;;;;;15.63;14.55;;;21.90;58.40;;;;;;4996472;28;20261;-85
2023/06/30 10:38:35;;;;;;;16.15;14.80;;;22.00;58.60;;;;;;4996347;28;20177;-85
2023/06/30 10:41:19;;;;;;;16.20;14.85;;;22.40;55.70;;;;;;4996351;28;20174;-86
2023/06/30 10:44:03;;;;;;;15.32;14.13;;;22.70;55.60;;;;;;4996257;28;20201;-86
2023/06/30 10:46:52;;;;;;;16.30;14.95;;;22.60;53.20;;;;;;5013850;28;20181;-86
2023/06/30 10:49:32;;;;;;;15.95;14.75;;;23.10;53.00;;;;;;4996442;28;20180;-86
2023/06/30 10:52:00;;;;;;;16.50;15.27;;;22.40;53.20;;;;;;4996076;28;20181;-86
2023/06/30 10:54:28;;;;;;;15.93;14.70;;;22.70;54.90;;;;;;4995867;28;20213;-86
2023/06/30 10:57:18;;;;;;;15.80;14.70;;;22.20;53.90;;;;;;5013660;28;20169;-86
2023/06/30 10:59:46;;;;;;;16.20;15.02;;;22.20;55.30;;;;;;4995989;28;20185;-86
2023/06/30 11:02:22;;;;;;;16.05;14.95;;;22.40;56.60;;;;;;4996951;28;20235;-84
2023/06/30 11:04:52;;;;;;;16.83;15.55;;;22.80;54.10;;;;;;4996147;28;20715;-86
2023/06/30 11:07:29;;;;;;;16.15;14.82;;;22.90;54.40;;;;;;4996097;28;20181;-86
2023/06/30 11:09:59;;;;;;;16.52;15.23;;;23.40;54.40;;;;;;4995992;28;20716;-86
2023/06/30 11:12:44;;;;;;;16.73;15.43;;;23.80;51.60;;;;;;4995870;28;20656;-86
2023/06/30 11:15:27;;;;;;;15.60;14.60;;;24.30;51.60;;;;;;4995840;28;20363;-86
2023/06/30 11:17:54;;;;;;;15.18;13.88;;;24.20;50.20;;;;;;5013378;28;20161;-86
2023/06/30 11:20:26;;;;;;;15.48;14.30;;;24.20;48.90;;;;;;5013533;28;20162;-87
2023/06/30 11:23:16;;;;;;;15.10;14.10;;;24.20;49.30;;;;;;5013496;28;20189;-86
2023/06/30 11:25:42;;;;;;;15.30;14.10;;;24.00;48.70;;;;;;4996022;28;20173;-86
2023/06/30 11:28:11;;;;;;;15.27;14.25;;;24.20;48.30;;;;;;4995703;28;20203;-86
2023/06/30 11:30:38;;;;;;;15.98;14.60;;;24.20;50.70;;;;;;5013390;28;20192;-86
2023/06/30 11:33:05;;;;;;;15.35;14.23;;;23.80;50.60;;;;;;4995733;28;20197;-86
2023/06/30 11:35:33;;;;;;;15.50;14.20;;;23.80;53.30;;;;;;4995521;28;20212;-85
2023/06/30 11:37:59;;;;;;;15.02;13.93;;;24.10;48.40;;;;;;4995795;28;20180;-86
2023/06/30 11:40:24;;;;;;;15.38;14.35;;;24.10;51.50;;;;;;4996968;28;20173;-86
2023/06/30 11:42:52;;;;;;;15.02;13.93;;;24.40;47.90;;;;;;4995656;28;20193;-86
2023/06/30 11:45:20;;;;;;;14.07;13.18;;;24.20;47.90;;;;;;4995829;28;20567;-91
2023/06/30 11:47:49;;;;;;;14.95;13.82;;;23.90;49.40;;;;;;4996144;28;20544;-86
2023/06/30 11:50:15;;;;;;;15.15;14.05;;;22.90;49.80;;;;;;5013644;28;20169;-86
2023/06/30 11:52:41;;;;;;;15.05;13.88;;;22.90;51.70;;;;;;4995152;28;20236;-86
2023/06/30 11:55:11;;;;;;;15.52;14.20;;;23.60;54.60;;;;;;5013578;28;20612;-86
2023/06/30 11:57:39;;;;;;;15.32;14.10;;;23.50;52.30;;;;;;5013044;28;20546;-86
2023/06/30 12:00:08;;;;;;;15.45;14.10;;;23.40;50.70;;;;;;4995321;28;20272;-86
2023/06/30 12:02:35;;;;;;;15.15;13.85;;;23.60;49.10;;;;;;5013127;28;20201;-86
2023/06/30 12:05:01;;;;;;;15.88;14.60;;;23.00;50.10;;;;;;4995383;28;20173;-86
2023/06/30 12:07:27;;;;;;;14.70;13.60;;;22.20;51.80;;;;;;5013167;28;20170;-86
2023/06/30 12:10:02;;;;;;;15.43;13.95;;;22.30;55.40;;;;;;5012919;28;20224;-86
2023/06/30 12:12:28;;;;;;;15.30;14.30;;;22.60;52.80;;;;;;5012750;28;20204;-86
2023/06/30 12:14:57;;;;;;;15.13;14.02;;;23.00;51.60;;;;;;5012805;28;20233;-86
2023/06/30 12:17:27;;;;;;;16.17;14.82;;;23.30;51.60;;;;;;5012859;28;20180;-86
2023/06/30 12:19:52;;;;;;;15.20;14.20;;;23.70;51.70;;;;;;5012840;28;20162;-86
2023/06/30 12:22:27;;;;;;;15.45;14.25;;;24.20;51.70;;;;;;5013000;28;20551;-87
2023/06/30 12:24:59;;;;;;;14.95;13.75;;;24.10;51.70;;;;;;4995140;28;20181;-86
2023/06/30 12:27:27;;;;;;;15.18;14.07;;;23.90;50.70;;;;;;4995322;28;20727;-86
2023/06/30 12:29:53;;;;;;;14.90;13.70;;;23.50;50.60;;;;;;4995023;28;20197;-86
2023/06/30 12:32:19;;;;;;;15.98;14.52;;;23.70;50.80;;;;;;4995088;28;20231;-86
2023/06/30 12:34:47;;;;;;;15.18;14.07;;;23.70;50.90;;;;;;4996301;28;20747;-87
2023/06/30 12:37:15;;;;;;;15.30;14.30;;;23.80;51.10;;;;;;5016232;28;20169;-86
2023/06/30 12:39:40;;;;;;;14.15;13.25;;;23.20;52.70;;;;;;4998538;28;20552;-86